createdAt,value
2022-11-06T00:01:45.028Z,10.12
2022-11-06T00:06:07.144Z,10.13
2022-11-06T00:10:09.262Z,10.13
2022-11-06T00:14:11.031Z,10.12
2022-11-06T00:18:13.083Z,10.12
2022-11-06T00:22:16.518Z,10.11
2022-11-06T00:26:20.733Z,10.12
2022-11-06T00:30:22.381Z,10.15
2022-11-06T00:34:24.022Z,10.16
2022-11-06T00:38:26.095Z,10.18
2022-11-06T00:42:27.845Z,10.18
2022-11-06T00:46:29.913Z,10.20
2022-11-06T00:50:32.892Z,10.20
2022-11-06T00:54:34.580Z,10.17
2022-11-06T00:58:36.676Z,10.17
2022-11-06T01:02:38.658Z,10.15
2022-11-06T01:06:44.177Z,10.12
2022-11-06T01:10:45.849Z,10.09
2022-11-06T01:14:47.663Z,10.06
2022-11-06T01:18:50.053Z,10.01
2022-11-06T01:22:51.679Z,9.97
2022-11-06T01:27:24.272Z,9.91
2022-11-06T01:31:19.471Z,9.86
2022-11-06T01:35:21.127Z,9.84
2022-11-06T01:39:22.792Z,9.84
2022-11-06T01:43:49.192Z,9.82
2022-11-06T01:47:51.450Z,9.82
2022-11-06T01:51:55.153Z,9.82
2022-11-06T01:56:01.339Z,9.80
2022-11-06T02:00:05.812Z,9.77
2022-11-06T02:04:26.676Z,9.74
2022-11-06T02:08:28.611Z,9.72
2022-11-06T02:12:50.913Z,9.72
2022-11-06T02:16:59.023Z,9.70
2022-11-06T02:21:15.878Z,9.68
2022-11-06T02:25:17.595Z,9.68
2022-11-06T02:29:54.090Z,9.68
2022-11-06T02:34:05.559Z,9.68
2022-11-06T02:38:16.918Z,9.69
2022-11-06T02:42:20.638Z,9.70
2022-11-06T02:46:28.483Z,9.71
2022-11-06T02:50:38.485Z,9.70
2022-11-06T02:54:46.200Z,9.72
2022-11-06T02:58:51.590Z,9.73
2022-11-06T03:02:55.991Z,9.73
2022-11-06T03:07:08.938Z,9.75
2022-11-06T03:11:24.549Z,9.74
2022-11-06T03:15:49.410Z,9.74
2022-11-06T03:19:56.240Z,9.73
2022-11-06T03:24:08.403Z,9.75
2022-11-06T03:28:34.189Z,9.77
2022-11-06T03:32:44.928Z,9.78
2022-11-06T03:36:54.977Z,9.77
2022-11-06T03:41:21.228Z,9.79
2022-11-06T03:45:26.665Z,9.80
2022-11-06T03:49:38.905Z,9.82
2022-11-06T03:53:49.755Z,9.83
2022-11-06T03:57:56.906Z,9.85
2022-11-06T04:02:00.317Z,9.86
2022-11-06T04:06:17.376Z,9.86
2022-11-06T04:10:37.887Z,9.88
2022-11-06T04:14:45.165Z,9.90
2022-11-06T04:18:46.836Z,9.92
2022-11-06T04:23:18.623Z,9.94
2022-11-06T04:27:36.653Z,9.96
2022-11-06T04:31:46.408Z,9.98
2022-11-06T04:35:53.886Z,10.01
2022-11-06T04:40:26.395Z,10.03
2022-11-06T04:44:36.075Z,10.03
2022-11-06T04:48:39.225Z,10.04
2022-11-06T04:52:43.480Z,10.04
2022-11-06T04:56:46.499Z,10.05
2022-11-06T05:00:50.833Z,10.06
2022-11-06T05:04:52.588Z,10.03
2022-11-06T05:08:54.268Z,9.99
2022-11-06T05:12:55.944Z,9.97
2022-11-06T05:16:57.699Z,9.95
2022-11-06T05:21:19.082Z,9.92
2022-11-06T05:25:20.814Z,9.90
2022-11-06T05:29:22.553Z,9.91
2022-11-06T05:33:24.531Z,9.92
2022-11-06T05:37:27.781Z,9.91
2022-11-06T05:41:29.501Z,9.89
2022-11-06T05:45:31.428Z,9.88
2022-11-06T05:49:33.050Z,9.88
2022-11-06T05:53:36.597Z,9.89
2022-11-06T05:57:38.353Z,9.89
2022-11-06T06:01:40.245Z,9.91
2022-11-06T06:05:42.054Z,9.93
2022-11-06T06:09:43.877Z,9.96
2022-11-06T06:13:45.624Z,9.98
2022-11-06T06:17:47.359Z,9.99
2022-11-06T06:21:49.367Z,9.99
2022-11-06T06:25:51.052Z,9.99
2022-11-06T06:29:52.704Z,9.99
2022-11-06T06:33:54.485Z,10.00
2022-11-06T06:37:56.115Z,10.00
2022-11-06T06:41:58.882Z,9.99
2022-11-06T06:46:02.772Z,9.99
2022-11-06T06:50:04.713Z,9.98
2022-11-06T06:54:06.584Z,9.96
2022-11-06T06:58:11.187Z,9.94
2022-11-06T07:02:15.353Z,9.94
2022-11-06T07:06:19.499Z,9.93
2022-11-06T07:10:21.166Z,9.95
2022-11-06T07:14:22.870Z,10.00
2022-11-06T07:18:25.281Z,10.01
2022-11-06T07:22:35.388Z,10.06
2022-11-06T07:26:38.802Z,10.10
2022-11-06T07:30:40.469Z,10.11
2022-11-06T07:34:42.125Z,10.17
2022-11-06T07:38:44.193Z,10.22
2022-11-06T07:42:45.949Z,10.27
2022-11-06T07:46:50.670Z,10.31
2022-11-06T07:50:52.348Z,10.33
2022-11-06T07:54:54.250Z,10.35
2022-11-06T07:58:55.951Z,10.35
2022-11-06T08:02:57.703Z,10.34
2022-11-06T08:06:59.551Z,10.34
2022-11-06T08:11:11.595Z,10.34
2022-11-06T08:15:13.588Z,10.32
2022-11-06T08:19:15.346Z,10.32
2022-11-06T08:23:16.961Z,10.31
2022-11-06T08:27:18.603Z,10.30
2022-11-06T08:31:21.216Z,10.31
2022-11-06T08:35:22.933Z,10.30
2022-11-06T08:39:24.616Z,10.31
2022-11-06T08:43:27.491Z,10.30
2022-11-06T08:47:29.271Z,10.30
2022-11-06T08:51:31.029Z,10.32
2022-11-06T08:55:38.437Z,10.33
2022-11-06T08:59:40.100Z,10.35
2022-11-06T09:03:41.766Z,10.35
2022-11-06T09:07:43.431Z,10.36
2022-11-06T09:11:45.183Z,10.38
2022-11-06T09:15:47.105Z,10.41
2022-11-06T09:19:52.357Z,10.47
2022-11-06T09:23:54.099Z,10.51
2022-11-06T09:27:59.195Z,10.53
2022-11-06T09:32:01.569Z,10.58
2022-11-06T09:36:05.466Z,10.63
2022-11-06T09:40:08.578Z,10.65
2022-11-06T09:44:48.844Z,10.70
2022-11-06T09:48:58.876Z,10.78
2022-11-06T09:53:07.688Z,10.86
2022-11-06T09:57:27.989Z,10.92
2022-11-06T10:01:40.685Z,10.98
2022-11-06T10:05:43.893Z,11.02
2022-11-06T10:09:45.565Z,11.04
2022-11-06T10:14:02.683Z,11.07
2022-11-06T10:18:30.026Z,11.09
2022-11-06T10:22:48.386Z,11.13
2022-11-06T10:26:56.281Z,11.17
2022-11-06T10:31:01.976Z,11.24
2022-11-06T10:35:16.653Z,11.31
2022-11-06T10:39:25.057Z,11.36
2022-11-06T10:43:49.154Z,11.36
2022-11-06T10:48:00.096Z,11.35
2022-11-06T10:52:20.088Z,11.34
2022-11-06T10:56:30.677Z,11.34
2022-11-06T11:00:33.993Z,11.33
2022-11-06T11:04:35.652Z,11.29
2022-11-06T11:08:40.509Z,11.26
2022-11-06T11:12:45.824Z,11.24
2022-11-06T11:16:48.001Z,11.19
2022-11-06T11:20:51.812Z,11.15
2022-11-06T11:25:04.023Z,11.09
2022-11-06T11:29:18.364Z,11.04
2022-11-06T11:33:24.419Z,11.02
2022-11-06T11:37:30.116Z,10.99
2022-11-06T11:41:31.867Z,10.98
2022-11-06T11:45:33.540Z,10.94
2022-11-06T11:49:35.549Z,10.93
2022-11-06T11:53:38.829Z,10.92
2022-11-06T11:57:48.605Z,10.92
2022-11-06T12:01:50.807Z,10.93
2022-11-06T12:05:53.859Z,10.97
2022-11-06T12:09:56.149Z,10.98
2022-11-06T12:14:26.249Z,11.00
2022-11-06T12:18:37.415Z,11.02
2022-11-06T12:22:44.429Z,11.03
2022-11-06T12:26:55.408Z,11.04
2022-11-06T12:31:06.326Z,11.03
2022-11-06T12:35:45.194Z,11.02
2022-11-06T12:39:57.043Z,11.02
2022-11-06T12:44:00.088Z,11.02
2022-11-06T12:48:28.815Z,10.99
2022-11-06T12:52:45.467Z,10.99
2022-11-06T12:56:49.781Z,10.94
2022-11-06T13:01:03.207Z,10.91
2022-11-06T13:05:33.907Z,10.86
2022-11-06T13:09:58.112Z,10.79
2022-11-06T13:14:22.143Z,10.75
2022-11-06T13:18:29.463Z,10.72
2022-11-06T13:22:58.962Z,10.70
2022-11-06T13:27:14.389Z,10.69
2022-11-06T13:31:20.412Z,10.68
2022-11-06T13:35:23.504Z,10.66
2022-11-06T13:39:44.705Z,10.63
2022-11-06T13:43:53.032Z,10.60
2022-11-06T13:48:00.983Z,10.57
2022-11-06T13:52:17.245Z,10.51
2022-11-06T13:56:50.631Z,10.48
2022-11-06T14:01:29.586Z,10.45
2022-11-06T14:05:40.755Z,10.42
2022-11-06T14:09:45.674Z,10.38
2022-11-06T14:14:22.447Z,10.35
2022-11-06T14:18:24.903Z,10.32
2022-11-06T14:22:38.518Z,10.30
2022-11-06T14:26:47.955Z,10.29
2022-11-06T14:31:22.614Z,10.26
2022-11-06T14:35:29.734Z,10.21
2022-11-06T14:39:56.112Z,10.16
2022-11-06T14:43:59.517Z,10.11
2022-11-06T14:48:02.201Z,10.05
2022-11-06T14:52:10.837Z,10.05
2022-11-06T14:56:25.232Z,10.02
2022-11-06T15:00:32.953Z,10.01
2022-11-06T15:04:35.372Z,10.00
2022-11-06T15:08:49.186Z,9.98
2022-11-06T15:13:12.065Z,9.95
2022-11-06T15:17:15.796Z,9.86
2022-11-06T15:21:29.826Z,9.80
2022-11-06T15:25:32.878Z,9.76
2022-11-06T15:29:39.979Z,9.73
2022-11-06T15:33:55.730Z,9.69
2022-11-06T15:38:06.238Z,9.62
2022-11-06T15:42:16.874Z,9.53
2022-11-06T15:46:22.285Z,9.49
2022-11-06T15:50:31.804Z,9.41
2022-11-06T15:54:43.888Z,9.37
2022-11-06T15:58:46.690Z,9.32
2022-11-06T16:03:00.510Z,9.32
2022-11-06T16:07:05.794Z,9.28
2022-11-06T16:11:14.459Z,9.24
2022-11-06T16:15:47.758Z,9.20
2022-11-06T16:19:51.182Z,9.17
2022-11-06T16:23:57.585Z,9.13
2022-11-06T16:27:59.515Z,9.10
2022-11-06T16:32:05.320Z,9.05
2022-11-06T16:36:12.896Z,9.03
2022-11-06T16:40:46.613Z,9.00
2022-11-06T16:44:50.501Z,8.91
2022-11-06T16:48:52.206Z,8.89
2022-11-06T16:52:54.262Z,8.86
2022-11-06T16:56:56.190Z,8.86
2022-11-06T17:01:04.455Z,8.83
2022-11-06T17:05:16.666Z,8.81
2022-11-06T17:09:35.029Z,8.80
2022-11-06T17:13:36.807Z,8.77
2022-11-06T17:17:40.172Z,8.75
2022-11-06T17:21:41.958Z,8.72
2022-11-06T17:25:45.232Z,8.69
2022-11-06T17:29:46.891Z,8.68
2022-11-06T17:33:48.916Z,8.68
2022-11-06T17:37:50.734Z,8.69
2022-11-06T17:41:53.674Z,8.69
2022-11-06T17:45:55.871Z,8.68
2022-11-06T17:49:58.846Z,8.69
2022-11-06T17:54:00.656Z,8.72
2022-11-06T17:58:02.302Z,8.72
2022-11-06T18:02:04.217Z,8.74
2022-11-06T18:06:09.802Z,8.76
2022-11-06T18:10:11.996Z,8.78
2022-11-06T18:14:13.735Z,8.80
2022-11-06T18:18:15.627Z,8.81
2022-11-06T18:22:17.770Z,8.86
2022-11-06T18:26:23.488Z,8.87
2022-11-06T18:30:25.196Z,8.90
2022-11-06T18:34:26.911Z,8.91
2022-11-06T18:38:28.969Z,8.97
2022-11-06T18:42:30.765Z,8.97
2022-11-06T18:46:32.593Z,8.99
2022-11-06T18:50:35.691Z,8.99
2022-11-06T18:54:37.547Z,9.01
2022-11-06T18:58:40.123Z,9.02
2022-11-06T19:02:42.028Z,9.02
2022-11-06T19:06:43.857Z,9.03
2022-11-06T19:10:46.176Z,9.05
2022-11-06T19:14:47.835Z,9.06
2022-11-06T19:23:03.234Z,9.08
2022-11-06T19:27:05.403Z,9.09
2022-11-06T19:31:07.353Z,9.12
2022-11-06T19:35:09.458Z,9.13
2022-11-06T19:39:11.622Z,9.16
2022-11-06T19:43:13.807Z,9.19
2022-11-06T19:47:15.881Z,9.23
2022-11-06T19:51:17.660Z,9.26
2022-11-06T19:55:26.580Z,9.32
2022-11-06T19:59:30.055Z,9.35
2022-11-06T20:03:31.718Z,9.40
2022-11-06T20:07:33.423Z,9.44
2022-11-06T20:11:35.360Z,9.49
2022-11-06T20:15:37.215Z,9.56
2022-11-06T20:19:38.995Z,9.60
2022-11-06T20:23:40.789Z,9.65
2022-11-06T20:27:42.542Z,9.70
2022-11-06T20:31:44.322Z,9.75
2022-11-06T20:35:46.203Z,9.79
2022-11-06T20:39:47.894Z,9.82
2022-11-06T20:43:50.515Z,9.83
2022-11-06T20:47:52.221Z,9.87
2022-11-06T20:52:13.159Z,9.91
2022-11-06T20:56:18.504Z,9.90
2022-11-06T21:00:20.365Z,9.88
2022-11-06T21:04:22.409Z,9.89
2022-11-06T21:08:24.358Z,9.88
2022-11-06T21:12:26.024Z,9.86
2022-11-06T21:16:34.221Z,9.83
2022-11-06T21:20:37.528Z,9.82
2022-11-06T21:24:39.212Z,9.83
2022-11-06T21:28:41.992Z,9.84
2022-11-06T21:32:43.719Z,9.87
2022-11-06T21:36:46.037Z,9.87
2022-11-06T21:40:47.722Z,9.88
2022-11-06T21:44:49.413Z,9.88
2022-11-06T21:48:52.447Z,9.89
2022-11-06T21:53:13.055Z,9.90
2022-11-06T21:57:14.792Z,9.91
2022-11-06T22:01:16.834Z,9.89
2022-11-06T22:05:18.635Z,9.89
2022-11-06T22:09:24.945Z,9.90
2022-11-06T22:13:27.157Z,9.94
2022-11-06T22:17:30.277Z,9.97
2022-11-06T22:21:33.145Z,10.01
2022-11-06T22:25:34.842Z,10.05
2022-11-06T22:29:36.481Z,10.07
2022-11-06T22:33:38.653Z,10.08
2022-11-06T22:37:40.365Z,10.08
2022-11-06T22:41:42.133Z,10.09
2022-11-06T22:45:44.194Z,10.12
2022-11-06T22:49:45.977Z,10.16
2022-11-06T22:53:48.113Z,10.20
2022-11-06T22:57:49.833Z,10.22
2022-11-06T23:01:51.574Z,10.25
2022-11-06T23:05:53.295Z,10.29
2022-11-06T23:09:54.960Z,10.31
2022-11-06T23:13:57.754Z,10.31
2022-11-06T23:17:59.928Z,10.33
2022-11-06T23:22:20.300Z,10.33
2022-11-06T23:26:22.073Z,10.32
2022-11-06T23:30:23.872Z,10.31
2022-11-06T23:34:25.531Z,10.30
2022-11-06T23:38:27.203Z,10.29
2022-11-06T23:42:29.008Z,10.32
2022-11-06T23:46:33.065Z,10.35
2022-11-06T23:50:34.796Z,10.38
2022-11-06T23:54:36.453Z,10.39
2022-11-06T23:58:39.078Z,10.39
